Ana Sayfa
METAR-TAF:

METAR-TAF

Havaalanları :

Bundaberg, Avustralya

Enlem: 24-54-14S, Boylam: 152-19-07E, yükseklik: 33 m

Güncel hava durumu gözlemi

Rapor saat 00:00 UTC de 52 dakika önce yapıldı.
Rüzgar güneydan 8 kt
Sıcaklık 17°C
Nem 68%
Basınç 1020 hPa
Görüş mesafesi 10 km veya daha fazla
4200 ft yükseklikte parçalı çok bulutlu
4900 ft yükseklikte çok bulutlu

METAR: YBUD 200000Z AUTO 17008KT 9999 // BKN042 OVC049 17/11 Q1020

Saat: 10:52 (00:52 UTC)


TAF: eksik

4.000'den fazla havaalanı için hava durumu gözlemleri ve tahminleri (METAR ve TAF raporları).

Kullanılabilir istasyonlar harita üzerinde sarı ve kırmızı noktalarla gösterilir.

İstasyonun adını görmek için fareyi noktanın üzerinde gezdirin.

Sonrasında hava gözlem ve tahminlerini görmek için tıklayın.

Haritayı değiştirmek için: yaklaştırmak için siyah artı işaretli yeşil düğmeye ve uzaklaştırmak için de eksi işaretli düğmeye hızla tıklayın; bitişik haritalar için yeşil okları kullanın.


METAR-TAF: